createdAt,value
2017-08-13T00:01:13.346Z,1.20
2017-08-13T00:03:41.623Z,1.30
2017-08-13T00:06:09.917Z,1.10
2017-08-13T00:08:38.205Z,1.00
2017-08-13T00:11:06.457Z,1.10
2017-08-13T00:13:34.780Z,1.23
2017-08-13T00:16:03.834Z,2.60
2017-08-13T00:18:32.076Z,2.60
2017-08-13T00:21:00.334Z,2.80
2017-08-13T00:23:28.613Z,2.60
2017-08-13T00:25:56.860Z,2.77
2017-08-13T00:28:25.127Z,2.30
2017-08-13T00:30:53.410Z,2.07
2017-08-13T00:33:22.439Z,1.90
2017-08-13T00:35:50.708Z,2.20
2017-08-13T00:38:19.007Z,1.80
2017-08-13T00:40:48.059Z,1.97
2017-08-13T00:43:16.362Z,2.13
2017-08-13T00:45:44.613Z,2.00
2017-08-13T00:48:13.635Z,1.93
2017-08-13T00:50:41.938Z,1.70
2017-08-13T00:53:11.003Z,1.70
2017-08-13T00:55:39.244Z,1.93
2017-08-13T00:58:07.558Z,1.73
2017-08-13T01:00:35.842Z,1.53
2017-08-13T01:03:04.087Z,1.70
2017-08-13T01:05:32.348Z,1.60
2017-08-13T01:08:00.625Z,1.63
2017-08-13T01:10:28.902Z,1.60
2017-08-13T01:12:57.169Z,1.57
2017-08-13T01:15:25.454Z,1.50
2017-08-13T01:17:53.743Z,1.77
2017-08-13T01:20:22.133Z,1.50
2017-08-13T01:22:50.391Z,1.73
2017-08-13T01:25:18.632Z,1.60
2017-08-13T01:27:46.901Z,1.63
2017-08-13T01:30:15.148Z,1.60
2017-08-13T01:32:43.393Z,1.40
2017-08-13T01:35:11.695Z,1.27
2017-08-13T01:37:39.950Z,1.47
2017-08-13T01:40:08.231Z,1.30
2017-08-13T01:42:36.501Z,1.50
2017-08-13T01:45:04.777Z,1.50
2017-08-13T01:47:33.839Z,1.40
2017-08-13T01:50:02.109Z,1.20
2017-08-13T01:52:30.356Z,1.17
2017-08-13T01:54:58.642Z,1.20
2017-08-13T01:57:27.707Z,1.27
2017-08-13T01:59:56.759Z,1.10
2017-08-13T02:02:25.042Z,1.30
2017-08-13T02:04:53.355Z,1.30
2017-08-13T02:07:21.600Z,1.30
2017-08-13T02:09:49.878Z,1.40
2017-08-13T02:12:18.234Z,1.20
2017-08-13T02:14:46.478Z,1.20
2017-08-13T02:17:14.725Z,1.30
2017-08-13T02:19:43.765Z,1.30
2017-08-13T02:22:15.130Z,1.30
2017-08-13T02:24:44.217Z,1.30
2017-08-13T02:27:12.469Z,1.30
2017-08-13T02:29:41.519Z,1.37
2017-08-13T02:32:09.801Z,1.20
2017-08-13T02:34:38.851Z,1.00
2017-08-13T02:37:07.143Z,1.30
2017-08-13T02:39:36.181Z,1.20
2017-08-13T02:42:04.449Z,1.30
2017-08-13T02:44:32.707Z,2.50
2017-08-13T02:47:01.015Z,2.90
2017-08-13T02:49:29.265Z,2.90
2017-08-13T02:51:58.277Z,3.23
2017-08-13T02:54:26.577Z,3.03
2017-08-13T02:56:54.817Z,3.17
2017-08-13T02:59:23.055Z,3.17
2017-08-13T03:01:51.371Z,3.30
2017-08-13T03:04:20.388Z,3.20
2017-08-13T03:06:48.641Z,3.57
2017-08-13T03:09:18.837Z,3.23
2017-08-13T03:11:47.095Z,4.00
2017-08-13T03:14:15.375Z,3.10
2017-08-13T03:16:43.695Z,3.70
2017-08-13T03:19:12.713Z,3.60
2017-08-13T03:21:40.965Z,3.70
2017-08-13T03:24:09.274Z,3.53
2017-08-13T03:26:37.521Z,4.10
2017-08-13T03:29:05.797Z,3.87
2017-08-13T03:31:34.065Z,4.50
2017-08-13T03:34:03.081Z,4.20
2017-08-13T03:36:31.361Z,4.23
2017-08-13T03:38:59.662Z,4.63
2017-08-13T03:41:28.705Z,4.43
2017-08-13T03:43:56.961Z,5.10
2017-08-13T03:46:25.227Z,4.70
2017-08-13T03:48:53.481Z,3.90
2017-08-13T03:51:21.766Z,4.70
2017-08-13T03:53:50.034Z,4.70
2017-08-13T03:56:19.052Z,4.60
2017-08-13T03:58:47.333Z,4.43
2017-08-13T04:01:15.631Z,4.50
2017-08-13T04:03:44.648Z,4.23
2017-08-13T04:06:12.922Z,4.40
2017-08-13T04:08:41.230Z,4.43
2017-08-13T04:11:10.241Z,5.33
2017-08-13T04:13:38.488Z,4.70
2017-08-13T04:16:06.760Z,4.90
2017-08-13T04:18:35.056Z,5.17
2017-08-13T04:21:03.342Z,5.40
2017-08-13T04:23:31.650Z,4.57
2017-08-13T04:25:59.930Z,4.70
2017-08-13T04:28:28.230Z,4.97
2017-08-13T04:30:57.294Z,4.70
2017-08-13T04:33:25.589Z,4.50
2017-08-13T04:35:53.873Z,5.00
2017-08-13T04:38:22.183Z,4.97
2017-08-13T04:40:51.253Z,5.17
2017-08-13T04:43:19.548Z,4.47
2017-08-13T04:45:47.857Z,4.17
2017-08-13T04:48:16.149Z,5.20
2017-08-13T04:50:45.165Z,5.87
2017-08-13T04:53:13.459Z,6.07
2017-08-13T04:55:41.764Z,5.47
2017-08-13T04:58:10.055Z,5.50
2017-08-13T05:00:38.337Z,5.13
2017-08-13T05:03:06.366Z,4.70
2017-08-13T05:05:34.618Z,5.30
2017-08-13T05:08:02.926Z,5.60
2017-08-13T05:10:31.177Z,4.83
2017-08-13T05:12:59.469Z,5.20
2017-08-13T05:15:28.538Z,5.37
2017-08-13T05:17:57.555Z,5.30
2017-08-13T05:20:25.802Z,6.00
2017-08-13T05:22:54.106Z,6.03
2017-08-13T05:25:22.353Z,6.17
2017-08-13T05:27:50.646Z,5.83
2017-08-13T05:30:19.709Z,5.70
2017-08-13T05:32:48.028Z,5.60
2017-08-13T05:35:16.307Z,5.83
2017-08-13T05:37:44.429Z,6.10
2017-08-13T05:40:12.719Z,5.73
2017-08-13T05:42:40.968Z,6.30
2017-08-13T05:45:09.284Z,5.60
2017-08-13T05:47:38.298Z,5.77
2017-08-13T05:50:06.586Z,6.10
2017-08-13T05:52:34.860Z,5.70
2017-08-13T05:55:03.146Z,5.10
2017-08-13T05:57:32.190Z,5.83
2017-08-13T06:00:00.456Z,5.60
2017-08-13T06:02:28.719Z,5.90
2017-08-13T06:04:57.003Z,5.90
2017-08-13T06:07:26.077Z,5.47
2017-08-13T06:09:55.088Z,6.77
2017-08-13T06:12:23.369Z,6.10
2017-08-13T06:14:51.632Z,5.70
2017-08-13T06:17:19.911Z,7.00
2017-08-13T06:19:48.159Z,6.83
2017-08-13T06:22:16.474Z,5.90
2017-08-13T06:24:44.764Z,6.40
2017-08-13T06:27:13.042Z,6.80
2017-08-13T06:29:41.418Z,6.93
2017-08-13T06:32:09.686Z,6.57
2017-08-13T06:34:37.972Z,7.40
2017-08-13T06:37:06.240Z,6.73
2017-08-13T06:39:34.488Z,6.93
2017-08-13T06:42:03.492Z,5.77
2017-08-13T06:44:31.790Z,6.50
2017-08-13T06:47:00.038Z,6.10
2017-08-13T06:49:28.281Z,6.50
2017-08-13T06:51:56.557Z,5.83
2017-08-13T06:54:24.805Z,5.73
2017-08-13T06:56:53.098Z,5.20
2017-08-13T06:59:21.390Z,5.10
2017-08-13T07:01:49.667Z,4.83
2017-08-13T07:04:17.984Z,4.83
2017-08-13T07:06:47.017Z,4.60
2017-08-13T07:09:15.269Z,4.67
2017-08-13T07:11:43.554Z,4.27
2017-08-13T07:14:11.820Z,4.30
2017-08-13T07:16:40.103Z,4.10
2017-08-13T07:19:09.149Z,4.37
2017-08-13T07:21:37.411Z,3.80
2017-08-13T07:24:05.648Z,3.70
2017-08-13T07:26:33.939Z,3.73
2017-08-13T07:29:02.243Z,3.60
2017-08-13T07:31:30.566Z,3.70
2017-08-13T07:33:58.850Z,3.50
2017-08-13T07:36:27.918Z,3.60
2017-08-13T07:38:56.974Z,3.40
2017-08-13T07:41:25.256Z,3.60
2017-08-13T07:43:54.290Z,2.80
2017-08-13T07:46:22.537Z,2.97
2017-08-13T07:48:50.819Z,3.27
2017-08-13T07:51:19.114Z,3.00
2017-08-13T07:53:48.166Z,3.07
2017-08-13T07:56:16.440Z,3.33
2017-08-13T07:58:44.756Z,3.10
2017-08-13T08:01:13.008Z,3.13
2017-08-13T08:03:41.295Z,2.97
2017-08-13T08:06:09.566Z,2.80
2017-08-13T08:08:37.813Z,2.60
2017-08-13T08:11:06.099Z,2.73
2017-08-13T08:13:34.363Z,2.77
2017-08-13T08:16:02.613Z,2.80
2017-08-13T08:18:30.902Z,2.60
2017-08-13T08:20:59.970Z,2.93
2017-08-13T08:23:29.013Z,3.07
2017-08-13T08:25:57.355Z,2.77
2017-08-13T08:28:25.663Z,2.67
2017-08-13T08:30:53.950Z,2.67
2017-08-13T08:33:22.047Z,3.00
2017-08-13T08:35:50.351Z,2.40
2017-08-13T08:38:19.370Z,2.40
2017-08-13T08:40:47.655Z,2.70
2017-08-13T08:43:15.964Z,2.30
2017-08-13T08:45:44.361Z,2.50
2017-08-13T08:48:12.628Z,2.53
2017-08-13T08:50:40.884Z,2.33
2017-08-13T08:53:09.143Z,2.43
2017-08-13T08:55:37.392Z,2.10
2017-08-13T08:58:05.668Z,2.27
2017-08-13T09:00:33.921Z,2.40
2017-08-13T09:03:02.172Z,2.17
2017-08-13T09:05:30.476Z,2.00
2017-08-13T09:07:58.727Z,2.30
2017-08-13T09:10:27.022Z,2.20
2017-08-13T09:12:55.330Z,2.40
2017-08-13T09:15:23.610Z,2.27
2017-08-13T09:17:51.857Z,1.87
2017-08-13T09:20:20.126Z,2.10
2017-08-13T09:22:48.410Z,2.20
2017-08-13T09:25:17.466Z,1.97
2017-08-13T09:27:45.800Z,2.10
2017-08-13T09:30:14.087Z,2.00
2017-08-13T09:32:42.377Z,1.70
2017-08-13T09:35:11.439Z,2.07
2017-08-13T09:37:39.731Z,2.30
2017-08-13T09:40:08.019Z,1.90
2017-08-13T09:42:36.319Z,1.90
2017-08-13T09:45:05.381Z,2.07
2017-08-13T09:47:33.723Z,2.20
2017-08-13T09:50:02.023Z,1.90
2017-08-13T09:52:31.074Z,1.90
2017-08-13T09:54:59.330Z,1.90
2017-08-13T09:57:27.620Z,2.00
2017-08-13T09:59:56.690Z,1.60
2017-08-13T10:02:24.940Z,1.93
2017-08-13T10:04:53.237Z,1.93
2017-08-13T10:07:21.607Z,1.70
2017-08-13T10:09:49.848Z,1.90
2017-08-13T10:12:18.932Z,1.63
2017-08-13T10:14:47.944Z,1.60
2017-08-13T10:17:16.198Z,1.70
2017-08-13T10:19:44.488Z,1.60
2017-08-13T10:22:12.737Z,1.77
2017-08-13T10:24:41.045Z,1.50
2017-08-13T10:27:10.085Z,1.57
2017-08-13T10:29:38.362Z,1.73
2017-08-13T10:32:06.609Z,1.83
2017-08-13T10:34:34.927Z,1.50
2017-08-13T10:37:03.239Z,1.90
2017-08-13T10:39:31.472Z,2.00
2017-08-13T10:41:59.780Z,1.80
2017-08-13T10:44:28.797Z,1.80
2017-08-13T10:46:57.044Z,1.63
2017-08-13T10:49:25.376Z,1.90
2017-08-13T10:51:54.386Z,1.50
2017-08-13T10:54:22.636Z,2.17
2017-08-13T10:56:50.908Z,1.87
2017-08-13T10:59:19.166Z,2.07
2017-08-13T11:01:49.803Z,1.60
2017-08-13T11:04:18.081Z,1.70
2017-08-13T11:06:46.361Z,1.90
2017-08-13T11:09:15.416Z,1.50
2017-08-13T11:11:44.352Z,1.83
2017-08-13T11:14:12.642Z,1.83
2017-08-13T11:16:40.893Z,1.60
2017-08-13T11:19:09.166Z,1.40
2017-08-13T11:21:37.451Z,1.80
2017-08-13T11:24:05.696Z,1.83
2017-08-13T11:26:34.003Z,1.63
2017-08-13T11:29:02.287Z,1.37
2017-08-13T11:31:30.574Z,1.40
2017-08-13T11:33:58.837Z,1.83
2017-08-13T11:36:27.091Z,1.50
2017-08-13T11:38:55.349Z,1.97
2017-08-13T11:41:23.650Z,1.40
2017-08-13T11:43:52.660Z,1.50
2017-08-13T11:46:20.946Z,1.60
2017-08-13T11:48:49.251Z,1.37
2017-08-13T11:51:17.549Z,1.50
2017-08-13T11:53:45.830Z,1.40
2017-08-13T11:56:14.125Z,1.27
2017-08-13T11:58:42.389Z,1.20
2017-08-13T12:01:11.442Z,1.40
2017-08-13T12:03:39.720Z,1.27
2017-08-13T12:06:08.735Z,1.37
2017-08-13T12:08:36.980Z,1.53
2017-08-13T12:11:05.274Z,1.53
2017-08-13T12:13:33.562Z,1.30
2017-08-13T12:16:01.808Z,1.37
2017-08-13T12:18:30.130Z,1.53
2017-08-13T12:20:58.410Z,1.20
2017-08-13T12:23:26.682Z,1.10
2017-08-13T12:25:54.986Z,1.40
2017-08-13T12:28:24.044Z,1.17
2017-08-13T12:30:53.068Z,1.40
2017-08-13T12:33:21.339Z,1.17
2017-08-13T12:35:49.585Z,1.40
2017-08-13T12:38:17.825Z,1.20
2017-08-13T12:40:46.110Z,1.10
2017-08-13T12:43:14.386Z,1.10
2017-08-13T12:45:43.026Z,1.10
2017-08-13T12:48:11.310Z,1.40
2017-08-13T12:50:39.594Z,1.20
2017-08-13T12:53:07.847Z,1.00
2017-08-13T12:55:36.111Z,1.07
2017-08-13T12:58:04.352Z,1.20
2017-08-13T13:00:32.605Z,1.10
2017-08-13T13:03:00.908Z,1.00
2017-08-13T13:05:29.185Z,1.33
2017-08-13T13:07:58.201Z,1.27
2017-08-13T13:10:26.506Z,1.00
2017-08-13T13:12:55.512Z,1.00
2017-08-13T13:15:23.785Z,1.30
2017-08-13T13:17:52.095Z,1.20
2017-08-13T13:20:20.336Z,1.20
2017-08-13T13:22:48.631Z,1.10
2017-08-13T13:25:17.706Z,1.40
2017-08-13T13:27:46.729Z,0.90
2017-08-13T13:30:14.985Z,1.00
2017-08-13T13:32:43.102Z,1.00
2017-08-13T13:35:12.117Z,1.00
2017-08-13T13:37:40.370Z,1.00
2017-08-13T13:40:08.658Z,1.20
2017-08-13T13:42:36.903Z,1.00
2017-08-13T13:45:05.184Z,1.00
2017-08-13T13:47:33.498Z,1.17
2017-08-13T13:50:01.762Z,1.07
2017-08-13T13:52:30.004Z,1.23
2017-08-13T13:54:59.052Z,1.20
2017-08-13T13:57:27.297Z,1.20
2017-08-13T13:59:55.585Z,1.00
2017-08-13T14:02:23.877Z,1.00
2017-08-13T14:04:52.174Z,0.90
2017-08-13T14:07:20.426Z,0.93
2017-08-13T14:09:48.722Z,1.00
2017-08-13T14:12:16.973Z,1.00
2017-08-13T14:14:45.221Z,1.10
2017-08-13T14:17:13.534Z,1.20
2017-08-13T14:19:41.814Z,1.00
2017-08-13T14:22:10.104Z,0.97
2017-08-13T14:24:38.397Z,1.00
2017-08-13T14:27:07.450Z,1.00
2017-08-13T14:29:35.702Z,1.10
2017-08-13T14:32:03.964Z,1.00
2017-08-13T14:34:32.250Z,1.10
2017-08-13T14:37:01.284Z,1.10
2017-08-13T14:39:29.599Z,1.00
2017-08-13T14:41:57.887Z,0.97
2017-08-13T14:44:26.222Z,1.00
2017-08-13T14:46:54.530Z,0.93
2017-08-13T14:49:22.822Z,0.90
2017-08-13T14:51:51.109Z,0.83
2017-08-13T14:54:19.419Z,0.90
2017-08-13T14:56:47.697Z,0.90
2017-08-13T14:59:15.949Z,1.00
2017-08-13T15:01:44.219Z,0.97
2017-08-13T15:04:12.501Z,0.90
2017-08-13T15:06:41.367Z,1.00
2017-08-13T15:09:10.435Z,1.03
2017-08-13T15:11:38.727Z,1.00
2017-08-13T15:14:06.973Z,0.80
2017-08-13T15:16:36.027Z,0.90
2017-08-13T15:19:04.268Z,1.00
2017-08-13T15:21:32.546Z,1.10
2017-08-13T15:24:00.812Z,1.00
2017-08-13T15:26:29.061Z,0.97
2017-08-13T15:28:57.313Z,0.83
2017-08-13T15:31:25.605Z,1.00
2017-08-13T15:33:54.621Z,1.07
2017-08-13T15:36:22.873Z,0.90
2017-08-13T15:38:51.137Z,1.00
2017-08-13T15:41:19.384Z,1.00
2017-08-13T15:43:47.764Z,0.80
2017-08-13T15:46:16.111Z,0.90
2017-08-13T15:48:44.394Z,0.80
2017-08-13T15:51:12.682Z,0.87
2017-08-13T15:53:40.949Z,1.10
2017-08-13T15:56:09.241Z,0.90
2017-08-13T15:58:37.535Z,0.80
2017-08-13T16:01:05.830Z,0.73
2017-08-13T16:03:34.084Z,0.90
2017-08-13T16:06:02.359Z,0.80
2017-08-13T16:08:31.426Z,0.80
2017-08-13T16:10:59.672Z,1.00
2017-08-13T16:13:27.959Z,1.00
2017-08-13T16:15:57.029Z,1.10
2017-08-13T16:18:25.353Z,0.90
2017-08-13T16:20:53.597Z,0.90
2017-08-13T16:23:21.871Z,0.90
2017-08-13T16:25:50.150Z,1.00
2017-08-13T16:28:18.405Z,0.90
2017-08-13T16:30:46.678Z,0.83
2017-08-13T16:33:14.967Z,1.00
2017-08-13T16:35:44.014Z,0.93
2017-08-13T16:38:12.100Z,0.90
2017-08-13T16:40:40.353Z,1.00
2017-08-13T16:43:09.420Z,0.90
2017-08-13T16:45:37.677Z,1.00
2017-08-13T16:48:05.924Z,0.90
2017-08-13T16:50:34.201Z,0.83
2017-08-13T16:53:02.539Z,1.00
2017-08-13T16:55:30.826Z,0.90
2017-08-13T16:57:59.869Z,0.90
2017-08-13T17:00:28.161Z,1.07
2017-08-13T17:02:56.464Z,0.90
2017-08-13T17:05:24.753Z,0.70
2017-08-13T17:07:53.051Z,0.90
2017-08-13T17:10:22.065Z,0.80
2017-08-13T17:12:50.345Z,0.93
2017-08-13T17:15:18.662Z,0.80
2017-08-13T17:17:46.903Z,0.83
2017-08-13T17:20:15.966Z,0.90
2017-08-13T17:22:44.269Z,0.77
2017-08-13T17:25:12.552Z,0.90
2017-08-13T17:27:40.848Z,0.90
2017-08-13T17:30:09.121Z,0.93
2017-08-13T17:32:38.172Z,0.80
2017-08-13T17:35:06.421Z,0.83
2017-08-13T17:37:34.704Z,0.90
2017-08-13T17:40:02.978Z,0.70
2017-08-13T17:42:32.032Z,1.03
2017-08-13T17:45:00.301Z,0.83
2017-08-13T17:47:28.545Z,0.90
2017-08-13T17:49:56.791Z,1.00
2017-08-13T17:52:25.074Z,0.80
2017-08-13T17:54:53.355Z,0.73
2017-08-13T17:57:22.373Z,0.97
2017-08-13T17:59:50.656Z,0.80
2017-08-13T18:02:18.910Z,0.90
2017-08-13T18:04:47.173Z,0.90
2017-08-13T18:07:15.446Z,0.80
2017-08-13T18:09:43.681Z,0.90
2017-08-13T18:12:11.967Z,0.80
2017-08-13T18:14:40.271Z,0.90
2017-08-13T18:17:09.277Z,0.87
2017-08-13T18:19:37.516Z,0.90
2017-08-13T18:22:05.788Z,0.80
2017-08-13T18:24:34.033Z,0.80
2017-08-13T18:27:02.281Z,0.70
2017-08-13T18:29:31.354Z,0.90
2017-08-13T18:32:00.363Z,0.80
2017-08-13T18:34:28.617Z,0.80
2017-08-13T18:36:56.917Z,0.80
2017-08-13T18:39:25.198Z,0.80
2017-08-13T18:41:54.254Z,0.87
2017-08-13T18:44:22.536Z,0.80
2017-08-13T18:46:50.813Z,0.70
2017-08-13T18:49:19.833Z,0.80
2017-08-13T18:51:48.089Z,0.90
2017-08-13T18:54:16.376Z,0.80
2017-08-13T18:56:44.664Z,0.80
2017-08-13T18:59:13.694Z,0.90
2017-08-13T19:01:41.985Z,0.80
2017-08-13T19:04:10.275Z,0.70
2017-08-13T19:06:38.553Z,0.83
2017-08-13T19:09:06.834Z,0.70
2017-08-13T19:11:35.093Z,0.70
2017-08-13T19:14:03.356Z,1.30
2017-08-13T19:16:31.639Z,1.83
2017-08-13T19:18:59.926Z,1.90
2017-08-13T19:21:28.223Z,1.80
2017-08-13T19:23:56.477Z,1.50
2017-08-13T19:26:24.758Z,1.73
2017-08-13T19:28:53.071Z,1.43
2017-08-13T19:31:21.317Z,1.20
2017-08-13T19:33:49.589Z,1.40
2017-08-13T19:36:17.881Z,1.53
2017-08-13T19:38:46.143Z,1.47
2017-08-13T19:41:14.386Z,1.40
2017-08-13T19:43:42.683Z,1.40
2017-08-13T19:46:10.941Z,1.30
2017-08-13T19:48:39.219Z,1.70
2017-08-13T19:51:08.256Z,1.40
2017-08-13T19:53:36.497Z,1.40
2017-08-13T19:56:04.782Z,1.30
2017-08-13T19:58:33.056Z,1.30
2017-08-13T20:01:01.304Z,1.33
2017-08-13T20:03:29.563Z,1.40
2017-08-13T20:05:57.858Z,1.10
2017-08-13T20:08:26.868Z,1.20
2017-08-13T20:10:55.115Z,1.33
2017-08-13T20:13:23.468Z,1.30
2017-08-13T20:15:51.717Z,1.33
2017-08-13T20:18:19.969Z,1.23
2017-08-13T20:20:48.996Z,1.13
2017-08-13T20:23:17.288Z,1.07
2017-08-13T20:25:45.588Z,1.10
2017-08-13T20:28:13.885Z,1.20
2017-08-13T20:30:42.167Z,1.10
2017-08-13T20:33:10.414Z,1.03
2017-08-13T20:35:38.694Z,1.10
2017-08-13T20:38:06.971Z,1.10
2017-08-13T20:40:36.018Z,1.20
2017-08-13T20:43:04.322Z,1.07
2017-08-13T20:45:32.573Z,1.20
2017-08-13T20:48:00.874Z,1.20
2017-08-13T20:50:29.178Z,1.30
2017-08-13T20:52:58.226Z,1.10
2017-08-13T20:55:26.512Z,1.10
2017-08-13T20:57:55.552Z,1.00
2017-08-13T21:00:23.797Z,1.10
2017-08-13T21:02:52.045Z,1.10
2017-08-13T21:05:20.344Z,1.20
2017-08-13T21:07:48.650Z,1.10
2017-08-13T21:10:16.901Z,1.20
2017-08-13T21:12:45.933Z,1.07
2017-08-13T21:15:14.217Z,1.30
2017-08-13T21:17:42.513Z,1.00
2017-08-13T21:20:10.828Z,1.20
2017-08-13T21:22:39.106Z,1.00
2017-08-13T21:25:07.349Z,1.10
2017-08-13T21:27:35.650Z,1.00
2017-08-13T21:30:04.695Z,1.00
2017-08-13T21:32:32.945Z,0.90
2017-08-13T21:35:01.247Z,1.00
2017-08-13T21:37:29.505Z,0.93
2017-08-13T21:39:57.785Z,1.00
2017-08-13T21:42:26.063Z,1.00
2017-08-13T21:44:54.304Z,0.90
2017-08-13T21:47:22.548Z,1.00
2017-08-13T21:49:50.854Z,2.60
2017-08-13T21:52:19.158Z,3.67
2017-08-13T21:54:48.206Z,3.30
2017-08-13T21:57:16.511Z,3.30
2017-08-13T21:59:44.767Z,3.23
2017-08-13T22:02:13.772Z,3.20
2017-08-13T22:04:42.057Z,2.90
2017-08-13T22:07:10.306Z,3.30
2017-08-13T22:09:38.585Z,2.93
2017-08-13T22:12:06.894Z,3.20
2017-08-13T22:14:35.180Z,3.67
2017-08-13T22:17:03.509Z,3.00
2017-08-13T22:19:31.776Z,4.03
2017-08-13T22:22:00.057Z,4.23
2017-08-13T22:24:28.347Z,3.20
2017-08-13T22:26:56.681Z,3.30
2017-08-13T22:29:24.958Z,3.37
2017-08-13T22:31:53.213Z,2.70
2017-08-13T22:34:21.481Z,2.80
2017-08-13T22:36:49.822Z,2.60
2017-08-13T22:39:18.117Z,2.40
2017-08-13T22:41:46.414Z,2.50
2017-08-13T22:44:14.694Z,2.87
2017-08-13T22:46:42.974Z,2.53
2017-08-13T22:49:11.290Z,2.30
2017-08-13T22:51:39.587Z,2.50
2017-08-13T22:54:07.846Z,2.10
2017-08-13T22:56:36.096Z,2.00
2017-08-13T22:59:04.364Z,2.13
2017-08-13T23:01:32.612Z,2.23
2017-08-13T23:04:00.909Z,2.17
2017-08-13T23:06:29.194Z,2.40
2017-08-13T23:08:58.238Z,2.40
2017-08-13T23:11:26.565Z,1.90
2017-08-13T23:13:54.946Z,2.00
2017-08-13T23:16:23.193Z,1.93
2017-08-13T23:18:51.546Z,1.67
2017-08-13T23:21:19.834Z,2.00
2017-08-13T23:23:47.906Z,1.77
2017-08-13T23:26:16.165Z,2.00
2017-08-13T23:28:44.450Z,2.20
2017-08-13T23:31:13.494Z,1.80
2017-08-13T23:33:41.789Z,1.90
2017-08-13T23:36:10.829Z,1.70
2017-08-13T23:38:39.119Z,1.60
2017-08-13T23:41:08.144Z,1.80
2017-08-13T23:43:36.430Z,1.50
2017-08-13T23:46:04.680Z,1.90
2017-08-13T23:48:32.949Z,1.80
2017-08-13T23:51:01.235Z,1.60
2017-08-13T23:53:30.295Z,1.70
2017-08-13T23:55:58.604Z,1.50
2017-08-13T23:58:26.905Z,1.57
